createdAt,value
2023-01-17T00:01:41.094Z,2.20
2023-01-17T00:04:28.324Z,3.20
2023-01-17T00:07:13.333Z,3.45
2023-01-17T00:12:25.829Z,3.50
2023-01-17T00:14:54.168Z,3.78
2023-01-17T00:17:21.524Z,4.90
2023-01-17T00:20:08.116Z,4.10
2023-01-17T00:22:52.705Z,4.75
2023-01-17T00:25:38.539Z,5.22
2023-01-17T00:28:05.542Z,5.70
2023-01-17T00:30:31.969Z,3.17
2023-01-17T00:32:58.263Z,4.07
2023-01-17T00:35:26.587Z,4.65
2023-01-17T00:38:00.485Z,4.60
2023-01-17T00:40:26.740Z,4.18
2023-01-17T00:42:52.992Z,4.28
2023-01-17T00:45:37.883Z,3.85
2023-01-17T00:48:22.865Z,2.95
2023-01-17T00:53:53.877Z,2.50
2023-01-17T00:56:38.548Z,2.58
2023-01-17T00:59:23.409Z,2.58
2023-01-17T01:04:53.564Z,1.60
2023-01-17T01:07:38.566Z,1.83
2023-01-17T01:13:09.960Z,1.50
2023-01-17T01:15:54.647Z,2.08
2023-01-17T01:18:39.598Z,2.63
2023-01-17T01:24:09.380Z,2.20
2023-01-17T01:26:54.121Z,2.15
2023-01-17T01:29:40.246Z,1.65
2023-01-17T01:32:25.085Z,2.00
2023-01-17T01:34:52.411Z,1.80
2023-01-17T01:37:19.721Z,1.50
2023-01-17T01:39:47.031Z,1.80
2023-01-17T01:42:15.095Z,1.83
2023-01-17T01:44:44.829Z,1.70
2023-01-17T01:47:14.380Z,1.60
2023-01-17T01:49:42.004Z,1.90
2023-01-17T01:52:10.453Z,1.67
2023-01-17T01:54:38.763Z,1.70
2023-01-17T01:57:08.176Z,1.35
2023-01-17T01:59:38.543Z,1.67
2023-01-17T02:02:07.896Z,1.65
2023-01-17T02:04:35.810Z,2.10
2023-01-17T02:07:06.602Z,1.77
2023-01-17T02:09:33.886Z,1.02
2023-01-17T02:12:01.334Z,1.40
2023-01-17T02:14:28.632Z,1.40
2023-01-17T02:17:03.794Z,1.60
2023-01-17T02:19:55.288Z,2.13
2023-01-17T02:22:35.138Z,2.05
2023-01-17T02:25:31.404Z,1.80
2023-01-17T02:28:09.596Z,1.80
2023-01-17T02:30:40.107Z,1.92
2023-01-17T02:33:15.456Z,2.45
2023-01-17T02:35:47.708Z,3.00
2023-01-17T02:38:25.161Z,2.70
2023-01-17T02:40:54.324Z,3.70
2023-01-17T02:43:23.296Z,3.20
2023-01-17T02:45:52.269Z,4.93
2023-01-17T02:48:22.076Z,4.40
2023-01-17T02:51:07.045Z,4.45
2023-01-17T02:56:06.552Z,3.97
2023-01-17T02:58:40.824Z,4.57
2023-01-17T03:01:15.901Z,3.80
2023-01-17T03:03:47.657Z,5.57
2023-01-17T03:06:17.581Z,5.32
2023-01-17T03:08:46.634Z,5.82
2023-01-17T03:11:14.709Z,5.80
2023-01-17T03:13:42.139Z,5.65
2023-01-17T03:16:13.221Z,5.80
2023-01-17T03:18:40.818Z,5.72
2023-01-17T03:21:08.360Z,5.53
2023-01-17T03:23:35.655Z,5.88
2023-01-17T03:26:05.523Z,5.00
2023-01-17T03:28:32.848Z,5.68
2023-01-17T03:31:00.265Z,5.22
2023-01-17T03:33:28.997Z,4.82
2023-01-17T03:35:57.996Z,4.35
2023-01-17T03:38:25.642Z,4.90
2023-01-17T03:40:52.966Z,4.97
2023-01-17T03:43:20.280Z,5.22
2023-01-17T03:45:50.082Z,5.70
2023-01-17T03:48:17.388Z,4.63
2023-01-17T03:50:46.046Z,4.70
2023-01-17T03:53:13.343Z,5.60
2023-01-17T03:55:40.894Z,6.20
2023-01-17T03:58:08.544Z,4.22
2023-01-17T04:00:37.510Z,5.55
2023-01-17T04:03:04.888Z,5.53
2023-01-17T04:05:32.302Z,5.00
2023-01-17T04:08:00.971Z,5.10
2023-01-17T04:10:28.290Z,5.95
2023-01-17T04:12:55.638Z,5.05
2023-01-17T04:15:23.181Z,5.07
2023-01-17T04:17:51.312Z,4.93
2023-01-17T04:20:22.709Z,4.70
2023-01-17T04:22:50.037Z,3.78
2023-01-17T04:25:19.865Z,5.45
2023-01-17T04:27:47.231Z,4.53
2023-01-17T04:30:15.377Z,4.65
2023-01-17T04:32:42.729Z,4.85
2023-01-17T04:35:10.312Z,5.53
2023-01-17T04:37:38.497Z,5.50
2023-01-17T04:40:06.403Z,3.88
2023-01-17T04:42:35.279Z,4.60
2023-01-17T04:45:02.620Z,5.18
2023-01-17T04:47:29.943Z,5.15
2023-01-17T04:49:57.507Z,5.97
2023-01-17T04:52:25.275Z,5.38
2023-01-17T04:54:52.821Z,4.97
2023-01-17T04:57:20.523Z,4.90
2023-01-17T04:59:49.188Z,4.82
2023-01-17T05:02:16.563Z,6.32
2023-01-17T05:04:43.996Z,4.55
2023-01-17T05:07:11.628Z,3.83
2023-01-17T05:09:39.141Z,5.65
2023-01-17T05:12:06.837Z,5.47
2023-01-17T05:14:34.409Z,5.18
2023-01-17T05:17:03.254Z,5.40
2023-01-17T05:19:30.896Z,5.43
2023-01-17T05:22:09.969Z,5.90
2023-01-17T05:24:37.502Z,6.95
2023-01-17T05:27:04.809Z,4.30
2023-01-17T05:29:32.115Z,5.47
2023-01-17T05:31:59.408Z,5.35
2023-01-17T05:34:28.075Z,4.35
2023-01-17T05:36:55.802Z,5.70
2023-01-17T05:39:23.149Z,6.28
2023-01-17T05:41:50.726Z,6.28
2023-01-17T05:44:18.072Z,5.65
2023-01-17T05:46:45.492Z,4.65
2023-01-17T05:49:12.814Z,5.63
2023-01-17T05:51:41.481Z,6.10
2023-01-17T05:54:08.789Z,6.55
2023-01-17T05:56:36.301Z,6.50
2023-01-17T05:59:04.279Z,6.38
2023-01-17T06:01:31.664Z,8.43
2023-01-17T06:03:58.980Z,6.95
2023-01-17T06:06:26.555Z,6.93
2023-01-17T06:08:55.214Z,6.13
2023-01-17T06:11:22.545Z,7.13
2023-01-17T06:13:49.891Z,6.50
2023-01-17T06:16:17.266Z,6.88
2023-01-17T06:18:44.843Z,6.55
2023-01-17T06:21:12.392Z,7.80
2023-01-17T06:23:40.431Z,7.60
2023-01-17T06:26:10.016Z,7.13
2023-01-17T06:28:37.418Z,6.68
2023-01-17T06:31:08.924Z,6.30
2023-01-17T06:33:36.351Z,6.45
2023-01-17T06:36:03.733Z,6.60
2023-01-17T06:38:31.073Z,6.03
2023-01-17T06:41:00.171Z,7.25
2023-01-17T06:43:33.480Z,6.43
2023-01-17T06:46:00.816Z,6.05
2023-01-17T06:48:28.246Z,6.32
2023-01-17T06:50:55.559Z,5.75
2023-01-17T06:53:22.918Z,7.15
2023-01-17T06:55:50.258Z,7.03
2023-01-17T06:58:17.514Z,5.93
2023-01-17T07:00:46.324Z,6.68
2023-01-17T07:03:18.291Z,6.22
2023-01-17T07:05:45.651Z,6.40
2023-01-17T07:08:12.997Z,5.75
2023-01-17T07:10:43.254Z,5.03
2023-01-17T07:13:10.697Z,5.60
2023-01-17T07:15:37.986Z,6.97
2023-01-17T07:18:07.116Z,6.50
2023-01-17T07:20:34.672Z,5.68
2023-01-17T07:23:02.400Z,6.03
2023-01-17T07:25:29.700Z,6.90
2023-01-17T07:27:57.525Z,6.80
2023-01-17T07:30:24.938Z,6.63
2023-01-17T07:32:53.055Z,6.57
2023-01-17T07:35:22.128Z,6.55
2023-01-17T07:37:49.794Z,7.07
2023-01-17T07:40:18.718Z,6.95
2023-01-17T07:42:46.168Z,6.80
2023-01-17T07:45:14.282Z,7.32
2023-01-17T07:47:41.658Z,7.28
2023-01-17T07:50:10.003Z,7.53
2023-01-17T07:52:38.676Z,7.38
2023-01-17T07:55:06.715Z,6.18
2023-01-17T07:57:34.110Z,6.93
2023-01-17T08:00:02.231Z,6.40
2023-01-17T08:02:29.519Z,6.97
2023-01-17T08:04:57.088Z,7.32
2023-01-17T08:07:24.382Z,6.97
2023-01-17T08:09:55.507Z,6.90
2023-01-17T08:12:23.078Z,6.55
2023-01-17T08:14:51.189Z,7.10
2023-01-17T08:17:20.263Z,6.47
2023-01-17T08:19:51.130Z,6.75
2023-01-17T08:22:18.764Z,6.70
2023-01-17T08:24:46.156Z,7.22
2023-01-17T08:27:15.150Z,6.20
2023-01-17T08:29:46.857Z,6.85
2023-01-17T08:32:14.673Z,6.45
2023-01-17T08:34:42.005Z,7.07
2023-01-17T08:37:09.517Z,6.22
2023-01-17T08:39:37.064Z,7.10
2023-01-17T08:42:04.746Z,6.50
2023-01-17T08:44:33.594Z,6.00
2023-01-17T08:47:01.976Z,6.60
2023-01-17T08:49:29.248Z,6.18
2023-01-17T08:51:56.803Z,5.40
2023-01-17T08:54:25.327Z,5.63
2023-01-17T08:56:55.413Z,6.18
2023-01-17T08:59:22.851Z,5.60
2023-01-17T09:01:52.490Z,4.90
2023-01-17T09:04:20.008Z,5.40
2023-01-17T09:06:48.187Z,4.78
2023-01-17T09:09:16.312Z,5.20
2023-01-17T09:11:43.610Z,6.13
2023-01-17T09:14:12.371Z,5.07
2023-01-17T09:16:39.814Z,4.75
2023-01-17T09:19:11.248Z,4.75
2023-01-17T09:21:38.551Z,5.03
2023-01-17T09:24:06.294Z,4.72
2023-01-17T09:26:33.716Z,4.32
2023-01-17T09:29:02.302Z,4.70
2023-01-17T09:31:29.589Z,4.78
2023-01-17T09:33:57.708Z,4.55
2023-01-17T09:36:28.634Z,5.55
2023-01-17T09:38:56.899Z,3.75
2023-01-17T09:41:27.869Z,5.05
2023-01-17T09:43:57.990Z,4.68
2023-01-17T09:46:27.496Z,4.47
2023-01-17T09:49:00.232Z,4.10
2023-01-17T09:51:29.142Z,4.40
2023-01-17T09:54:00.120Z,4.28
2023-01-17T09:56:31.179Z,3.92
2023-01-17T09:59:18.790Z,5.38
2023-01-17T10:01:51.459Z,4.40
2023-01-17T10:04:27.985Z,4.22
2023-01-17T10:07:01.921Z,4.28
2023-01-17T10:09:46.475Z,3.70
2023-01-17T10:12:24.386Z,4.22
2023-01-17T10:14:55.932Z,3.90
2023-01-17T10:17:28.811Z,3.70
2023-01-17T10:20:03.874Z,4.03
2023-01-17T10:22:39.977Z,3.28
2023-01-17T10:25:16.374Z,3.17
2023-01-17T10:27:47.731Z,3.10
2023-01-17T10:30:18.386Z,3.00
2023-01-17T10:32:49.281Z,2.80
2023-01-17T10:35:20.773Z,3.20
2023-01-17T10:37:50.050Z,3.30
2023-01-17T10:40:20.522Z,2.83
2023-01-17T10:42:53.566Z,3.17
2023-01-17T10:45:25.456Z,3.47
2023-01-17T10:47:56.918Z,3.20
2023-01-17T10:50:25.711Z,2.72
2023-01-17T10:52:57.683Z,3.03
2023-01-17T10:55:31.899Z,2.85
2023-01-17T10:57:59.418Z,3.30
2023-01-17T11:00:33.221Z,3.22
2023-01-17T11:03:01.300Z,2.65
2023-01-17T11:05:30.371Z,2.97
2023-01-17T11:07:59.763Z,2.70
2023-01-17T11:10:39.804Z,2.95
2023-01-17T11:13:08.837Z,3.15
2023-01-17T11:15:39.296Z,2.22
2023-01-17T11:18:07.875Z,2.70
2023-01-17T11:20:36.880Z,2.40
2023-01-17T11:23:08.653Z,2.60
2023-01-17T11:25:36.181Z,2.60
2023-01-17T11:28:05.646Z,2.50
2023-01-17T11:30:33.610Z,3.60
2023-01-17T11:33:03.086Z,2.88
2023-01-17T11:35:31.471Z,2.60
2023-01-17T11:38:00.568Z,2.88
2023-01-17T11:40:30.669Z,3.30
2023-01-17T11:43:06.691Z,2.80
2023-01-17T11:45:34.632Z,2.75
2023-01-17T11:48:15.966Z,3.05
2023-01-17T11:50:44.742Z,2.53
2023-01-17T11:53:16.925Z,2.90
2023-01-17T11:55:54.507Z,2.95
2023-01-17T11:58:23.926Z,2.90
2023-01-17T12:00:55.149Z,3.17
2023-01-17T12:03:31.357Z,3.03
2023-01-17T12:06:02.011Z,2.80
2023-01-17T12:08:38.369Z,3.25
2023-01-17T12:11:10.644Z,2.95
2023-01-17T12:13:59.267Z,3.08
2023-01-17T12:16:33.263Z,3.75
2023-01-17T12:19:06.965Z,3.20
2023-01-17T12:24:25.033Z,3.30
2023-01-17T12:26:56.578Z,3.08
2023-01-17T12:29:31.145Z,3.58
2023-01-17T12:32:05.891Z,3.92
2023-01-17T12:37:03.780Z,2.90
2023-01-17T12:39:34.116Z,3.30
2023-01-17T12:42:05.264Z,3.33
2023-01-17T12:44:41.351Z,3.35
2023-01-17T12:47:08.744Z,3.35
2023-01-17T12:49:40.553Z,2.75
2023-01-17T12:52:11.640Z,2.83
2023-01-17T12:54:40.897Z,3.35
2023-01-17T12:57:14.187Z,3.10
2023-01-17T12:59:46.062Z,3.10
2023-01-17T13:02:16.961Z,2.97
2023-01-17T13:04:58.444Z,3.20
2023-01-17T13:07:29.326Z,3.50
2023-01-17T13:10:00.187Z,3.80
2023-01-17T13:12:31.091Z,3.95
2023-01-17T13:14:59.925Z,3.40
2023-01-17T13:17:32.360Z,2.92
2023-01-17T13:20:03.152Z,3.65
2023-01-17T13:22:32.059Z,3.50
2023-01-17T13:25:08.097Z,3.88
2023-01-17T13:27:46.452Z,3.40
2023-01-17T13:30:22.945Z,4.00
2023-01-17T13:32:58.827Z,3.15
2023-01-17T13:35:43.414Z,3.22
2023-01-17T13:38:27.941Z,3.45
2023-01-17T13:40:55.603Z,3.58
2023-01-17T13:43:26.519Z,3.65
2023-01-17T13:45:54.939Z,3.70
2023-01-17T13:48:29.816Z,3.60
2023-01-17T13:50:58.164Z,4.28
2023-01-17T13:53:56.051Z,4.93
2023-01-17T13:56:31.101Z,4.55
2023-01-17T13:59:02.619Z,4.80
2023-01-17T14:01:45.032Z,5.03
2023-01-17T14:04:13.019Z,5.18
2023-01-17T14:06:44.079Z,5.10
2023-01-17T14:09:16.214Z,4.75
2023-01-17T14:12:10.658Z,4.60
2023-01-17T14:14:47.310Z,5.63
2023-01-17T14:17:48.135Z,5.88
2023-01-17T14:20:38.265Z,6.03
2023-01-17T14:23:15.288Z,5.38
2023-01-17T14:25:42.565Z,5.43
2023-01-17T14:28:21.912Z,4.93
2023-01-17T14:30:55.752Z,5.25
2023-01-17T14:33:27.518Z,4.90
2023-01-17T14:35:56.434Z,4.80
2023-01-17T14:38:24.973Z,4.85
2023-01-17T14:40:53.790Z,4.85
2023-01-17T14:43:21.669Z,5.63
2023-01-17T14:45:49.768Z,4.88
2023-01-17T14:48:20.807Z,5.05
2023-01-17T14:50:48.699Z,5.18
2023-01-17T14:53:20.842Z,5.32
2023-01-17T14:55:52.773Z,4.93
2023-01-17T14:58:21.639Z,5.03
2023-01-17T15:00:50.072Z,4.88
2023-01-17T15:03:19.093Z,5.60
2023-01-17T15:05:47.914Z,4.93
2023-01-17T15:08:15.910Z,5.80
2023-01-17T15:10:48.988Z,6.10
2023-01-17T15:13:21.294Z,4.93
2023-01-17T15:16:03.973Z,4.72
2023-01-17T15:18:36.102Z,4.90
2023-01-17T15:21:04.624Z,5.53
2023-01-17T15:23:34.418Z,5.65
2023-01-17T15:26:02.597Z,5.40
2023-01-17T15:28:30.286Z,4.90
2023-01-17T15:31:01.761Z,4.72
2023-01-17T15:33:30.809Z,4.75
2023-01-17T15:36:04.153Z,5.35
2023-01-17T15:38:38.572Z,5.30
2023-01-17T15:41:08.874Z,3.88
2023-01-17T15:43:36.272Z,5.60
2023-01-17T15:46:04.763Z,5.35
2023-01-17T15:48:38.288Z,5.30
2023-01-17T15:51:07.003Z,6.95
2023-01-17T15:53:35.576Z,5.68
2023-01-17T15:56:19.446Z,4.70
2023-01-17T15:58:50.135Z,5.32
2023-01-17T16:01:18.249Z,6.05
2023-01-17T16:03:58.470Z,5.10
2023-01-17T16:06:30.913Z,5.85
2023-01-17T16:08:58.333Z,5.78
2023-01-17T16:11:25.700Z,5.32
2023-01-17T16:13:53.747Z,4.78
2023-01-17T16:16:22.757Z,4.82
2023-01-17T16:18:53.034Z,5.20
2023-01-17T16:21:21.860Z,5.75
2023-01-17T16:23:50.678Z,5.45
2023-01-17T16:26:19.017Z,5.95
2023-01-17T16:28:46.714Z,5.65
2023-01-17T16:31:14.041Z,5.15
2023-01-17T16:33:42.643Z,5.68
2023-01-17T16:36:15.746Z,5.88
2023-01-17T16:38:43.220Z,6.28
2023-01-17T16:41:11.888Z,13.68
2023-01-17T16:43:39.312Z,21.10
2023-01-17T16:46:07.156Z,14.52
2023-01-17T16:48:34.539Z,13.10
2023-01-17T16:51:05.958Z,9.48
2023-01-17T16:53:33.363Z,9.60
2023-01-17T16:56:06.418Z,8.18
2023-01-17T16:58:35.539Z,8.05
2023-01-17T17:01:02.884Z,8.65
2023-01-17T17:03:30.551Z,7.55
2023-01-17T17:05:58.712Z,8.40
2023-01-17T17:08:28.580Z,7.13
2023-01-17T17:10:55.970Z,6.88
2023-01-17T17:13:23.337Z,10.80
2023-01-17T17:15:52.223Z,10.73
2023-01-17T17:18:19.706Z,13.88
2023-01-17T17:20:49.426Z,11.52
2023-01-17T17:23:16.784Z,9.05
2023-01-17T17:25:44.087Z,11.95
2023-01-17T17:28:11.874Z,11.85
2023-01-17T17:30:39.185Z,8.70
2023-01-17T17:33:07.862Z,11.05
2023-01-17T17:35:35.450Z,8.95
2023-01-17T17:38:05.333Z,11.30
2023-01-17T17:40:34.577Z,10.68
2023-01-17T17:43:01.970Z,9.65
2023-01-17T17:45:29.278Z,9.30
2023-01-17T17:47:56.659Z,8.77
2023-01-17T17:50:27.943Z,8.02
2023-01-17T17:52:55.368Z,11.18
2023-01-17T17:55:22.674Z,7.88
2023-01-17T17:57:50.235Z,7.97
2023-01-17T18:00:17.929Z,6.60
2023-01-17T18:02:45.349Z,7.30
2023-01-17T18:05:12.701Z,9.57
2023-01-17T18:07:41.351Z,10.82
2023-01-17T18:10:09.257Z,12.43
2023-01-17T18:12:36.814Z,12.10
2023-01-17T18:15:04.537Z,12.68
2023-01-17T18:17:32.180Z,10.95
2023-01-17T18:19:59.593Z,9.00
2023-01-17T18:22:27.286Z,8.48
2023-01-17T18:24:55.988Z,11.55
2023-01-17T18:27:23.361Z,18.45
2023-01-17T18:29:51.219Z,15.00
2023-01-17T18:32:18.538Z,10.95
2023-01-17T18:34:45.849Z,9.18
2023-01-17T18:37:13.459Z,9.48
2023-01-17T18:39:40.786Z,9.20
2023-01-17T18:42:10.150Z,8.77
2023-01-17T18:44:37.528Z,9.50
2023-01-17T18:47:05.537Z,9.90
2023-01-17T18:49:34.298Z,10.80
2023-01-17T18:52:01.723Z,10.15
2023-01-17T18:54:29.054Z,11.07
2023-01-17T18:56:56.441Z,12.93
2023-01-17T18:59:25.695Z,15.63
2023-01-17T19:01:53.485Z,24.40
2023-01-17T19:04:21.447Z,22.20
2023-01-17T19:06:48.994Z,20.25
2023-01-17T19:09:17.114Z,21.52
2023-01-17T19:11:45.439Z,20.55
2023-01-17T19:14:13.154Z,18.92
2023-01-17T19:16:42.576Z,16.50
2023-01-17T19:19:10.764Z,16.08
2023-01-17T19:21:38.177Z,15.65
2023-01-17T19:24:06.658Z,13.30
2023-01-17T19:26:34.109Z,12.70
2023-01-17T19:29:03.501Z,14.43
2023-01-17T19:31:32.201Z,12.10
2023-01-17T19:34:00.974Z,9.93
2023-01-17T19:36:29.597Z,9.98
2023-01-17T19:39:04.894Z,10.32
2023-01-17T19:41:33.904Z,8.90
2023-01-17T19:44:03.065Z,7.93
2023-01-17T19:46:30.427Z,8.45
2023-01-17T19:48:58.290Z,7.93
2023-01-17T19:51:27.627Z,8.98
2023-01-17T19:53:55.624Z,7.93
2023-01-17T19:56:24.403Z,10.02
2023-01-17T19:58:52.841Z,10.38
2023-01-17T20:01:21.609Z,13.02
2023-01-17T20:03:49.511Z,12.00
2023-01-17T20:06:17.917Z,12.77
2023-01-17T20:08:46.544Z,10.65
2023-01-17T20:11:15.756Z,10.00
2023-01-17T20:13:43.394Z,8.65
2023-01-17T20:16:11.781Z,10.32
2023-01-17T20:18:39.448Z,11.68
2023-01-17T20:21:07.986Z,11.88
2023-01-17T20:23:36.458Z,8.93
2023-01-17T20:26:05.511Z,9.82
2023-01-17T20:28:34.422Z,8.73
2023-01-17T20:31:05.730Z,9.98
2023-01-17T20:33:33.216Z,9.45
2023-01-17T20:36:10.033Z,10.93
2023-01-17T20:38:44.701Z,9.43
2023-01-17T20:41:14.689Z,10.98
2023-01-17T20:43:42.230Z,11.60
2023-01-17T20:46:10.296Z,12.82
2023-01-17T20:48:38.945Z,14.32
2023-01-17T20:51:07.197Z,15.10
2023-01-17T20:53:34.676Z,24.80
2023-01-17T20:56:02.000Z,13.57
2023-01-17T20:58:31.494Z,9.05
2023-01-17T21:00:59.533Z,9.38
2023-01-17T21:03:29.992Z,8.93
2023-01-17T21:06:02.585Z,8.90
2023-01-17T21:08:30.079Z,9.60
2023-01-17T21:10:57.800Z,9.07
2023-01-17T21:13:25.517Z,8.70
2023-01-17T21:15:54.216Z,7.20
2023-01-17T21:18:22.513Z,7.82
2023-01-17T21:20:50.403Z,8.10
2023-01-17T21:23:19.914Z,8.27
2023-01-17T21:25:55.999Z,8.10
2023-01-17T21:28:23.527Z,7.57
2023-01-17T21:30:50.970Z,7.15
2023-01-17T21:33:20.816Z,6.55
2023-01-17T21:35:48.944Z,7.63
2023-01-17T21:38:16.484Z,6.30
2023-01-17T21:40:44.623Z,5.90
2023-01-17T21:43:12.281Z,6.78
2023-01-17T21:45:40.327Z,8.85
2023-01-17T21:48:08.007Z,5.55
2023-01-17T21:50:38.660Z,6.07
2023-01-17T21:53:06.035Z,6.78
2023-01-17T21:55:51.154Z,6.63
2023-01-17T21:58:36.142Z,6.53
2023-01-17T22:01:10.911Z,7.05
2023-01-17T22:03:38.457Z,7.32
2023-01-17T22:06:07.439Z,12.30
2023-01-17T22:08:35.197Z,6.57
2023-01-17T22:11:07.189Z,7.20
2023-01-17T22:13:35.185Z,7.05
2023-01-17T22:16:03.787Z,7.25
2023-01-17T22:18:31.715Z,7.85
2023-01-17T22:20:59.097Z,9.20
2023-01-17T22:23:27.868Z,8.60
2023-01-17T22:25:55.282Z,9.20
2023-01-17T22:28:23.292Z,8.40
2023-01-17T22:30:50.845Z,8.38
2023-01-17T22:33:18.155Z,13.05
2023-01-17T22:35:45.432Z,8.95
2023-01-17T22:38:12.759Z,12.27
2023-01-17T22:40:41.456Z,15.32
2023-01-17T22:43:09.009Z,9.55
2023-01-17T22:45:37.235Z,9.50
2023-01-17T22:48:05.665Z,10.35
2023-01-17T22:50:33.212Z,11.68
2023-01-17T22:53:04.032Z,11.10
2023-01-17T22:55:31.358Z,11.13
2023-01-17T22:58:00.013Z,10.77
2023-01-17T23:00:27.405Z,10.48
2023-01-17T23:02:55.081Z,11.30
2023-01-17T23:05:22.755Z,9.82
2023-01-17T23:07:50.500Z,11.05
2023-01-17T23:10:38.768Z,10.10
2023-01-17T23:13:10.297Z,12.80
2023-01-17T23:15:55.824Z,15.32
2023-01-17T23:18:40.789Z,11.48
2023-01-17T23:21:08.573Z,10.13
2023-01-17T23:23:35.885Z,12.45
2023-01-17T23:26:03.264Z,11.18
2023-01-17T23:28:30.954Z,12.65
2023-01-17T23:31:01.547Z,10.82
2023-01-17T23:33:29.142Z,13.38
2023-01-17T23:35:56.823Z,10.43
2023-01-17T23:38:25.832Z,10.75
2023-01-17T23:41:07.174Z,11.30
2023-01-17T23:43:36.570Z,9.88
2023-01-17T23:46:04.605Z,11.10
2023-01-17T23:48:32.233Z,10.95
2023-01-17T23:51:00.305Z,12.70
2023-01-17T23:53:27.984Z,12.20
2023-01-17T23:55:56.424Z,11.60
2023-01-17T23:58:25.409Z,11.93
